Time;durP1;ratioP1;P1;durP2;ratioP2;P2;SDS_P1;SDS_P2;PMS_P1;PMS_P2;Temp;Humidity;BMP_temperature;BMP_pressure;BME280_temperature;BME280_humidity;BME280_pressure;Samples;Min_cycle;Max_cycle;Signal;HPM_P1;HPM_P2
2022/01/12 00:02:10;;;;;;;10.20;7.90;;;4.00;99.90;;;;;;5017443;28;20022;-78
2022/01/12 00:04:35;;;;;;;13.68;10.30;;;4.00;99.90;;;;;;5017226;28;20509;-78
2022/01/12 00:07:01;;;;;;;14.07;8.38;;;4.00;99.90;;;;;;5016347;28;20114;-78
2022/01/12 00:09:27;;;;;;;10.98;7.35;;;3.90;99.90;;;;;;5017348;28;20068;-78
2022/01/12 00:11:52;;;;;;;21.10;8.88;;;3.90;99.90;;;;;;5017485;28;20021;-78
2022/01/12 00:14:18;;;;;;;14.88;9.10;;;3.90;99.90;;;;;;5017720;28;20021;-78
2022/01/12 00:16:47;;;;;;;14.05;9.10;;;3.90;99.90;;;;;;5016865;28;20103;-78
2022/01/12 00:19:14;;;;;;;14.52;9.77;;;3.80;99.90;;;;;;5017338;28;20022;-78
2022/01/12 00:21:40;;;;;;;13.15;8.80;;;3.80;99.90;;;;;;5017239;28;20037;-78
2022/01/12 00:24:07;;;;;;;11.82;9.23;;;3.70;99.90;;;;;;5016095;28;20057;-78
2022/01/12 00:34:30;;;;;;;12.27;9.85;;;3.40;99.90;;;;;;5017217;28;20040;-78
2022/01/12 00:36:56;;;;;;;15.77;9.90;;;3.40;99.90;;;;;;5017194;28;20022;-78
2022/01/12 00:39:22;;;;;;;14.52;9.75;;;3.40;99.90;;;;;;5017399;28;20037;-78
2022/01/12 00:41:48;;;;;;;16.75;9.25;;;3.40;99.90;;;;;;5015798;28;20025;-79
2022/01/12 00:44:23;;;;;;;14.18;10.52;;;3.30;99.90;;;;;;5017350;28;20026;-78
2022/01/12 00:46:53;;;;;;;11.93;9.30;;;3.30;99.90;;;;;;5016173;28;20041;-79
2022/01/12 00:49:20;;;;;;;15.48;10.50;;;3.30;99.90;;;;;;5017249;28;20037;-79
2022/01/12 00:51:47;;;;;;;14.38;10.40;;;3.30;99.90;;;;;;5015602;28;20022;-79
2022/01/12 00:54:13;;;;;;;14.15;10.15;;;3.40;99.90;;;;;;5015835;28;20509;-78
2022/01/12 00:56:39;;;;;;;14.93;11.43;;;3.40;99.90;;;;;;5016191;28;20030;-79
2022/01/12 00:59:05;;;;;;;12.90;10.30;;;3.40;99.90;;;;;;5017140;28;20090;-79
2022/01/12 01:01:32;;;;;;;16.13;10.57;;;3.30;99.90;;;;;;5017102;28;20054;-79
2022/01/12 01:03:58;;;;;;;20.60;11.23;;;3.20;99.90;;;;;;5017023;28;20046;-79
2022/01/12 01:06:24;;;;;;;17.80;11.40;;;3.20;99.90;;;;;;5015619;28;20410;-79
2022/01/12 01:08:51;;;;;;;16.10;10.70;;;3.10;99.90;;;;;;5016799;28;20053;-79
2022/01/12 01:11:23;;;;;;;14.73;11.93;;;3.10;99.90;;;;;;5015727;28;20050;-79
2022/01/12 01:14:00;;;;;;;16.80;10.88;;;3.10;99.90;;;;;;5015555;28;20030;-79
2022/01/12 01:16:53;;;;;;;16.15;11.73;;;3.00;99.90;;;;;;5017132;28;20395;-78
2022/01/12 01:27:32;;;;;;;18.63;12.10;;;2.90;99.90;;;;;;5016814;28;20029;-79
2022/01/12 01:29:58;;;;;;;15.15;12.85;;;2.90;99.90;;;;;;5020214;28;20030;-78
2022/01/12 01:32:25;;;;;;;21.70;13.65;;;2.90;99.90;;;;;;5020625;28;20022;-79
2022/01/12 01:34:51;;;;;;;16.23;11.75;;;2.90;99.90;;;;;;5018652;28;20018;-78
2022/01/12 01:37:17;;;;;;;15.43;13.02;;;2.90;99.90;;;;;;5020474;28;20530;-79
2022/01/12 01:39:43;;;;;;;13.48;10.93;;;2.90;99.90;;;;;;5019122;28;20080;-78
2022/01/12 01:53:25;;;;;;;19.30;12.23;;;2.90;99.90;;;;;;5020210;28;20049;-79
2022/01/12 01:55:51;;;;;;;19.80;12.00;;;2.80;99.90;;;;;;5019959;28;20075;-79
2022/01/12 01:58:17;;;;;;;16.85;13.18;;;2.80;99.90;;;;;;5020059;28;20125;-79
2022/01/12 02:00:43;;;;;;;18.02;12.55;;;2.70;99.90;;;;;;5018526;28;20029;-79
2022/01/12 02:03:08;;;;;;;15.55;12.95;;;2.70;99.90;;;;;;5018599;28;20026;-79
2022/01/12 02:05:34;;;;;;;15.13;12.07;;;2.60;99.90;;;;;;5018201;28;20036;-79
2022/01/12 02:08:01;;;;;;;20.27;12.93;;;2.60;99.90;;;;;;5018354;28;20029;-79
2022/01/12 02:10:27;;;;;;;19.90;13.95;;;2.60;99.90;;;;;;5019468;28;20122;-79
2022/01/12 02:12:52;;;;;;;23.15;12.80;;;2.50;99.90;;;;;;5019702;28;20101;-79
2022/01/12 02:15:22;;;;;;;18.27;13.18;;;2.50;99.90;;;;;;5019555;28;20081;-79
2022/01/12 02:18:16;;;;;;;19.50;14.35;;;2.40;99.90;;;;;;5018466;28;20117;-79
2022/01/12 02:40:11;;;;;;;26.80;15.27;;;2.10;99.90;;;;;;5017989;28;20076;-79
2022/01/12 02:42:41;;;;;;;19.75;13.77;;;2.10;99.90;;;;;;5050337;28;20022;-80
2022/01/12 02:50:46;;;;;;;18.38;14.35;;;2.00;99.90;;;;;;5018464;28;20394;-80
2022/01/12 02:55:58;;;;;;;22.85;15.60;;;1.90;99.90;;;;;;5018625;28;20033;-79
2022/01/12 02:58:24;;;;;;;20.98;13.85;;;1.90;99.90;;;;;;5017528;28;20083;-79
2022/01/12 03:03:43;;;;;;;21.27;14.75;;;1.90;99.90;;;;;;5019055;28;20033;-79
2022/01/12 03:06:10;;;;;;;20.02;13.52;;;1.90;99.90;;;;;;5017136;28;20033;-79
2022/01/12 03:08:37;;;;;;;19.85;13.43;;;1.80;99.90;;;;;;5018443;28;20046;-79
2022/01/12 03:11:07;;;;;;;21.10;13.93;;;1.90;99.90;;;;;;5018554;28;20026;-79
2022/01/12 03:13:33;;;;;;;23.48;14.70;;;1.90;99.90;;;;;;5017167;28;20113;-79
2022/01/12 03:16:00;;;;;;;27.23;15.63;;;1.90;99.90;;;;;;5018318;28;20112;-79
2022/01/12 03:18:26;;;;;;;21.33;14.45;;;1.90;99.90;;;;;;5018562;28;20504;-79
2022/01/12 03:20:52;;;;;;;19.98;15.32;;;1.90;99.90;;;;;;5017953;28;20398;-79
2022/01/12 03:23:18;;;;;;;23.27;13.85;;;1.90;99.90;;;;;;5018384;28;20101;-79
2022/01/12 03:25:44;;;;;;;20.73;14.50;;;1.80;99.90;;;;;;5016688;28;20068;-80
2022/01/12 03:28:10;;;;;;;20.15;13.77;;;1.90;99.90;;;;;;5016840;28;20034;-80
2022/01/12 03:30:47;;;;;;;21.08;14.32;;;1.90;99.90;;;;;;5016933;28;20096;-80
2022/01/12 03:34:06;;;;;;;27.13;14.98;;;2.00;99.90;;;;;;5018211;28;20498;-79
2022/01/12 03:36:24;;;;;;;17.83;14.40;;;2.00;99.90;;;;;;5020453;28;20084;-79
2022/01/12 03:38:53;;;;;;;23.83;14.27;;;2.00;99.90;;;;;;5016828;28;20022;-79
2022/01/12 03:41:20;;;;;;;23.38;13.60;;;2.00;99.90;;;;;;5018214;28;20064;-79
2022/01/12 03:43:46;;;;;;;30.10;13.80;;;2.00;99.90;;;;;;5018127;28;20045;-79
2022/01/12 03:46:14;;;;;;;17.20;13.43;;;2.10;99.90;;;;;;5016566;28;20036;-79
2022/01/12 03:48:41;;;;;;;19.88;14.43;;;2.10;99.90;;;;;;5017931;28;20036;-79
2022/01/12 03:51:06;;;;;;;18.40;13.70;;;2.10;99.90;;;;;;5015905;28;20061;-79
2022/01/12 03:53:32;;;;;;;20.73;14.40;;;2.00;99.90;;;;;;5017603;28;20436;-79
2022/01/12 03:55:58;;;;;;;18.77;13.23;;;2.00;99.90;;;;;;5016493;28;20478;-79
2022/01/12 03:58:24;;;;;;;23.92;14.43;;;2.00;99.90;;;;;;5017787;28;20046;-79
2022/01/12 04:00:50;;;;;;;19.70;15.13;;;1.90;99.90;;;;;;5016206;28;20030;-79
2022/01/12 04:03:16;;;;;;;21.48;13.73;;;1.90;99.90;;;;;;5018063;28;20030;-79
2022/01/12 04:08:22;;;;;;;23.65;13.68;;;1.90;99.90;;;;;;5017425;28;20025;-79
2022/01/12 04:10:53;;;;;;;20.63;13.65;;;1.90;99.90;;;;;;5016212;28;20513;-79
2022/01/12 04:13:25;;;;;;;20.80;14.85;;;2.00;99.90;;;;;;5017558;28;20014;-78
2022/01/12 04:15:56;;;;;;;21.80;14.43;;;1.90;99.90;;;;;;5017429;28;20478;-78
2022/01/12 04:18:22;;;;;;;18.85;13.38;;;1.90;99.90;;;;;;5017768;28;20386;-78
2022/01/12 04:20:50;;;;;;;18.85;13.70;;;2.00;99.90;;;;;;5017130;28;20021;-79
2022/01/12 04:23:18;;;;;;;21.55;15.10;;;2.00;99.90;;;;;;5017490;28;20022;-78
2022/01/12 04:25:50;;;;;;;23.67;13.55;;;2.00;99.90;;;;;;5017347;28;20044;-78
2022/01/12 04:28:18;;;;;;;19.88;14.32;;;2.00;99.90;;;;;;5000432;28;20386;-79
2022/01/12 04:30:45;;;;;;;19.23;14.10;;;1.90;99.90;;;;;;5017586;28;20026;-79
2022/01/12 04:33:11;;;;;;;20.85;14.35;;;1.90;99.90;;;;;;5017447;28;20447;-79
2022/01/12 04:35:45;;;;;;;22.83;13.95;;;1.90;99.90;;;;;;5015882;28;20022;-79
2022/01/12 04:38:11;;;;;;;21.70;14.63;;;1.80;99.90;;;;;;5015906;28;20049;-79
2022/01/12 04:40:37;;;;;;;24.75;15.93;;;1.80;99.90;;;;;;5017530;28;20367;-79
2022/01/12 04:43:03;;;;;;;22.85;15.90;;;1.70;99.90;;;;;;5017117;28;20088;-79
2022/01/12 04:50:25;;;;;;;27.90;15.70;;;1.70;99.90;;;;;;5017172;28;20041;-79
2022/01/12 04:52:51;;;;;;;22.98;16.05;;;1.70;99.90;;;;;;5017107;28;20026;-79
2022/01/12 04:55:17;;;;;;;25.20;16.65;;;1.70;99.90;;;;;;5017679;28;20041;-79
2022/01/12 04:57:43;;;;;;;23.13;15.57;;;1.70;99.90;;;;;;5016962;28;20109;-79
2022/01/12 05:00:15;;;;;;;20.17;14.85;;;1.70;99.90;;;;;;5017250;28;20069;-78
2022/01/12 05:13:38;;;;;;;21.42;15.10;;;1.60;99.90;;;;;;5020823;28;20080;-78
2022/01/12 05:16:04;;;;;;;24.55;16.45;;;1.60;99.90;;;;;;5019301;28;20085;-79
2022/01/12 05:18:32;;;;;;;18.90;14.27;;;1.60;99.90;;;;;;5020924;28;20022;-78
2022/01/12 05:20:58;;;;;;;20.83;16.23;;;1.60;99.90;;;;;;5019260;28;20036;-79
2022/01/12 05:23:24;;;;;;;22.60;17.15;;;1.60;99.90;;;;;;5019518;28;20026;-79
2022/01/12 05:25:52;;;;;;;21.65;16.02;;;1.60;99.90;;;;;;5020561;28;20034;-79
2022/01/12 05:28:19;;;;;;;25.95;16.55;;;1.60;99.90;;;;;;5020444;28;20018;-79
2022/01/12 05:30:45;;;;;;;23.13;15.73;;;1.50;99.90;;;;;;5019435;28;20028;-79
2022/01/12 05:33:11;;;;;;;21.67;15.57;;;1.50;99.90;;;;;;5019778;28;20149;-79
2022/01/12 05:35:37;;;;;;;23.13;14.65;;;1.40;99.90;;;;;;5020104;28;20064;-79
2022/01/12 05:38:05;;;;;;;20.80;17.00;;;1.30;99.90;;;;;;5018988;28;20030;-79
2022/01/12 05:40:32;;;;;;;23.30;15.27;;;1.40;99.90;;;;;;5020136;28;20168;-79
2022/01/12 05:43:01;;;;;;;23.05;16.48;;;1.30;99.90;;;;;;5018584;28;20033;-79
2022/01/12 05:45:28;;;;;;;20.45;15.45;;;1.40;99.90;;;;;;5019073;28;20021;-78
2022/01/12 05:50:21;;;;;;;22.08;15.23;;;1.30;99.90;;;;;;5019932;28;20026;-79
2022/01/12 05:52:47;;;;;;;21.63;17.40;;;1.30;99.90;;;;;;5018512;28;20545;-79
2022/01/12 05:55:14;;;;;;;26.67;17.45;;;1.20;99.90;;;;;;5020211;28;20024;-79
2022/01/12 05:57:41;;;;;;;27.17;18.88;;;1.20;99.90;;;;;;5019816;28;20483;-78
2022/01/12 06:00:13;;;;;;;27.20;17.38;;;1.10;99.90;;;;;;5020079;28;20029;-78
2022/01/12 06:02:39;;;;;;;24.17;17.35;;;1.10;99.90;;;;;;5019769;28;20037;-78
2022/01/12 06:05:06;;;;;;;23.67;17.58;;;1.00;99.90;;;;;;5019646;28;20030;-78
2022/01/12 06:07:31;;;;;;;24.33;19.30;;;1.00;99.90;;;;;;5019781;28;20025;-78
2022/01/12 06:09:57;;;;;;;28.90;18.60;;;1.00;99.90;;;;;;5019533;28;20095;-78
2022/01/12 06:12:23;;;;;;;24.58;17.48;;;0.90;99.90;;;;;;5019586;28;20057;-78
2022/01/12 06:14:49;;;;;;;31.33;18.77;;;0.90;99.90;;;;;;5018713;28;20032;-78
2022/01/12 06:17:14;;;;;;;25.10;17.80;;;0.80;99.90;;;;;;5018392;28;20030;-78
2022/01/12 06:19:40;;;;;;;27.85;17.95;;;0.80;99.90;;;;;;5019248;28;20021;-79
2022/01/12 06:22:06;;;;;;;27.73;18.23;;;0.80;99.90;;;;;;5051559;28;20053;-78
2022/01/12 06:24:32;;;;;;;24.90;18.08;;;0.70;99.90;;;;;;5019547;28;20022;-78
2022/01/12 06:27:00;;;;;;;24.08;17.60;;;0.80;99.90;;;;;;5019264;28;20470;-78
2022/01/12 06:32:04;;;;;;;25.02;16.80;;;0.80;99.90;;;;;;5036670;28;20025;-78
2022/01/12 06:34:30;;;;;;;23.75;17.65;;;0.80;99.90;;;;;;5038441;28;20060;-78
2022/01/12 06:36:55;;;;;;;29.92;18.77;;;0.90;99.90;;;;;;5019339;28;20030;-78
2022/01/12 06:39:23;;;;;;;23.63;17.27;;;0.80;99.90;;;;;;5018036;28;20022;-78
2022/01/12 06:41:51;;;;;;;25.10;16.73;;;0.80;99.90;;;;;;5019065;28;20044;-78
2022/01/12 06:44:18;;;;;;;19.73;16.58;;;0.80;99.90;;;;;;5019257;28;20092;-77
2022/01/12 06:46:44;;;;;;;24.58;18.23;;;0.80;99.90;;;;;;5019131;28;20060;-78
2022/01/12 06:49:11;;;;;;;25.35;17.00;;;0.80;99.90;;;;;;5018853;28;20028;-78
2022/01/12 06:51:38;;;;;;;24.58;17.00;;;0.70;99.90;;;;;;5018985;28;20478;-78
2022/01/12 06:54:04;;;;;;;24.25;17.90;;;0.70;99.90;;;;;;5017670;28;20022;-78
2022/01/12 06:56:30;;;;;;;21.90;16.17;;;0.70;99.90;;;;;;5018726;28;20022;-78
2022/01/12 06:58:56;;;;;;;20.33;16.23;;;0.60;99.90;;;;;;5019217;28;20029;-79
2022/01/12 07:01:22;;;;;;;25.80;16.70;;;0.60;99.90;;;;;;5017138;28;20449;-78
2022/01/12 07:03:49;;;;;;;25.83;16.13;;;0.60;99.90;;;;;;5018657;28;20402;-78
2022/01/12 07:06:15;;;;;;;21.45;16.20;;;0.60;99.90;;;;;;5018348;28;20108;-78
2022/01/12 07:08:41;;;;;;;31.77;17.10;;;0.60;99.90;;;;;;5018533;28;20192;-78
2022/01/12 07:11:07;;;;;;;22.42;16.58;;;0.50;99.90;;;;;;5018492;28;20042;-78
2022/01/12 07:13:33;;;;;;;28.67;16.60;;;0.50;99.90;;;;;;5018476;28;20021;-77
2022/01/12 07:15:58;;;;;;;29.58;19.38;;;0.50;99.90;;;;;;5018475;28;20030;-77
2022/01/12 07:18:26;;;;;;;25.88;17.27;;;0.50;99.90;;;;;;5018521;28;20025;-77
2022/01/12 07:20:52;;;;;;;25.25;19.05;;;0.40;99.90;;;;;;5018008;28;20030;-78
2022/01/12 07:23:18;;;;;;;24.10;19.08;;;0.40;99.90;;;;;;5006483;28;20025;-78
2022/01/12 07:25:43;;;;;;;26.95;19.42;;;0.40;99.90;;;;;;5016862;28;20022;-77
2022/01/12 07:28:09;;;;;;;32.92;20.40;;;0.40;99.90;;;;;;5018082;28;20723;-78
2022/01/12 07:30:35;;;;;;;33.10;21.35;;;0.40;99.90;;;;;;5018097;28;20026;-78
2022/01/12 07:33:01;;;;;;;33.15;21.38;;;0.40;99.90;;;;;;5018180;28;20044;-78
2022/01/12 07:35:27;;;;;;;27.27;19.95;;;0.40;99.90;;;;;;5017762;28;20022;-78
2022/01/12 07:37:53;;;;;;;29.10;22.52;;;0.40;99.90;;;;;;5017973;28;20026;-78
2022/01/12 07:40:18;;;;;;;31.80;20.73;;;0.40;99.90;;;;;;5017984;28;20029;-78
2022/01/12 07:42:45;;;;;;;34.55;21.90;;;0.30;99.90;;;;;;5016715;28;20121;-78
2022/01/12 07:45:11;;;;;;;35.33;22.27;;;0.30;99.90;;;;;;5017026;28;20050;-79
2022/01/12 07:47:38;;;;;;;29.23;20.05;;;0.40;99.90;;;;;;5017690;28;20049;-78
2022/01/12 07:50:05;;;;;;;33.72;21.52;;;0.40;99.90;;;;;;5022826;28;20029;-78
2022/01/12 07:52:31;;;;;;;30.75;21.55;;;0.40;99.90;;;;;;5037591;28;20025;-77
2022/01/12 07:54:58;;;;;;;30.65;20.02;;;0.40;99.90;;;;;;5037415;28;20557;-77
2022/01/12 07:57:24;;;;;;;27.95;19.13;;;0.40;99.90;;;;;;5037508;28;20026;-77
2022/01/12 07:59:49;;;;;;;33.67;21.35;;;0.40;99.90;;;;;;5037593;28;20580;-77
2022/01/12 08:02:15;;;;;;;26.90;19.63;;;0.50;99.90;;;;;;5037513;28;20078;-77
2022/01/12 08:04:41;;;;;;;28.58;19.70;;;0.50;99.90;;;;;;5031487;28;20083;-76
2022/01/12 08:07:10;;;;;;;51.05;30.38;;;0.60;99.90;;;;;;5017684;28;20057;-77
2022/01/12 08:09:37;;;;;;;358.05;182.30;;;0.60;99.90;;;;;;5016078;28;20037;-77
2022/01/12 08:12:03;;;;;;;107.65;48.55;;;0.70;99.90;;;;;;5017450;28;20364;-77
2022/01/12 08:14:28;;;;;;;283.92;101.05;;;0.70;99.90;;;;;;5015744;28;20117;-77
2022/01/12 08:16:54;;;;;;;33.80;21.73;;;0.80;99.90;;;;;;5017393;28;20054;-76
2022/01/12 08:19:21;;;;;;;28.75;19.27;;;0.80;99.90;;;;;;5016706;28;20065;-77
2022/01/12 08:21:47;;;;;;;22.45;17.23;;;0.90;99.90;;;;;;5019112;28;20179;-76
2022/01/12 08:24:13;;;;;;;24.23;15.27;;;1.00;99.90;;;;;;5017649;28;20029;-77
2022/01/12 08:26:40;;;;;;;25.60;16.30;;;1.00;99.90;;;;;;5017257;28;20101;-77
2022/01/12 08:29:10;;;;;;;24.02;15.65;;;1.10;99.90;;;;;;5017433;28;20077;-76
2022/01/12 08:31:36;;;;;;;23.77;17.55;;;1.20;99.90;;;;;;5016325;28;20018;-77
2022/01/12 08:34:02;;;;;;;20.27;16.13;;;1.20;99.90;;;;;;5016746;28;20018;-77
2022/01/12 08:36:28;;;;;;;24.55;18.63;;;1.30;99.90;;;;;;5016767;28;20402;-77
2022/01/12 08:38:55;;;;;;;22.50;14.77;;;1.30;99.90;;;;;;5021215;28;20025;-77
2022/01/12 08:41:21;;;;;;;26.92;17.23;;;1.40;99.90;;;;;;5021665;28;20104;-77
2022/01/12 08:43:47;;;;;;;27.35;17.63;;;1.40;99.90;;;;;;5054778;28;20441;-77
2022/01/12 08:46:13;;;;;;;21.05;16.33;;;1.50;99.90;;;;;;5023140;28;20037;-77
2022/01/12 08:48:39;;;;;;;22.73;16.67;;;1.50;99.90;;;;;;5022718;28;20423;-77
2022/01/12 08:51:05;;;;;;;23.60;17.65;;;1.50;99.90;;;;;;5022281;28;20018;-77
2022/01/12 08:53:31;;;;;;;29.95;19.00;;;1.50;99.90;;;;;;5022775;28;20049;-77
2022/01/12 08:55:57;;;;;;;25.20;19.85;;;1.60;99.90;;;;;;5020059;28;20030;-76
2022/01/12 08:58:22;;;;;;;23.55;17.50;;;1.60;99.90;;;;;;5023603;28;20053;-76
2022/01/12 09:00:48;;;;;;;30.50;19.77;;;1.50;99.90;;;;;;5022063;28;20026;-77
2022/01/12 09:03:14;;;;;;;195.77;108.57;;;1.50;99.90;;;;;;5022370;28;20130;-77
2022/01/12 09:05:40;;;;;;;28.13;17.80;;;1.50;99.90;;;;;;5023204;28;20160;-76
2022/01/12 09:08:06;;;;;;;23.55;18.08;;;1.50;99.90;;;;;;5023633;28;20493;-78
2022/01/12 09:10:33;;;;;;;61.20;40.95;;;1.50;99.90;;;;;;5023175;28;20052;-78
2022/01/12 09:13:00;;;;;;;29.83;17.70;;;1.50;99.90;;;;;;5020090;28;20029;-77
2022/01/12 09:15:26;;;;;;;123.47;85.15;;;1.50;99.90;;;;;;5023487;28;20101;-77
2022/01/12 09:17:56;;;;;;;29.77;19.17;;;1.50;99.90;;;;;;5021745;28;20041;-76
2022/01/12 09:20:23;;;;;;;23.30;18.05;;;1.50;99.90;;;;;;5020306;28;20494;-76
2022/01/12 09:22:49;;;;;;;24.20;17.20;;;1.40;99.90;;;;;;5007773;28;20037;-78
2022/01/12 09:25:15;;;;;;;23.55;17.52;;;1.50;99.90;;;;;;5022912;28;20113;-77
2022/01/12 09:27:41;;;;;;;19.70;15.77;;;1.40;99.90;;;;;;5022480;28;20069;-76
2022/01/12 09:30:11;;;;;;;21.88;16.38;;;1.40;99.90;;;;;;5054826;28;20030;-77
2022/01/12 09:32:37;;;;;;;22.73;15.93;;;1.50;99.90;;;;;;5054503;28;20367;-77
2022/01/12 09:35:04;;;;;;;28.05;20.85;;;1.50;99.90;;;;;;5054078;28;20038;-77
2022/01/12 09:37:30;;;;;;;21.77;17.08;;;1.60;99.90;;;;;;5015951;28;20030;-77
2022/01/12 09:39:55;;;;;;;62.13;46.83;;;1.60;99.90;;;;;;5022911;28;20025;-77
2022/01/12 09:42:21;;;;;;;31.02;22.45;;;1.60;99.90;;;;;;5022145;28;22063;-76
2022/01/12 09:44:48;;;;;;;23.23;17.08;;;1.70;99.90;;;;;;5023086;28;20033;-77
2022/01/12 09:47:15;;;;;;;66.22;47.63;;;1.70;99.90;;;;;;5023073;28;20028;-77
2022/01/12 09:49:45;;;;;;;25.92;18.02;;;1.70;99.90;;;;;;5021046;28;20021;-77
2022/01/12 09:52:12;;;;;;;22.75;13.70;;;1.70;99.90;;;;;;5017989;28;20018;-76
2022/01/12 09:54:38;;;;;;;26.33;17.40;;;1.70;99.90;;;;;;5019888;28;20391;-76
2022/01/12 09:57:05;;;;;;;26.70;17.35;;;1.70;99.90;;;;;;5020029;28;20044;-76
2022/01/12 09:59:31;;;;;;;22.70;16.77;;;1.80;99.90;;;;;;5018284;28;20402;-76
2022/01/12 10:01:58;;;;;;;21.65;16.58;;;1.80;99.90;;;;;;5018346;28;20034;-75
2022/01/12 10:04:31;;;;;;;26.33;16.35;;;1.80;99.90;;;;;;5017587;28;20026;-75
2022/01/12 10:07:02;;;;;;;40.92;26.38;;;1.80;99.90;;;;;;5017518;28;20052;-76
2022/01/12 10:09:39;;;;;;;49.70;36.00;;;1.80;99.90;;;;;;5019210;28;20395;-76
2022/01/12 10:12:14;;;;;;;22.20;16.70;;;2.00;99.90;;;;;;5018103;28;20049;-75
2022/01/12 10:14:52;;;;;;;25.98;16.92;;;2.20;99.90;;;;;;5018145;28;20033;-75
2022/01/12 10:17:20;;;;;;;39.33;30.60;;;2.20;99.90;;;;;;5019440;28;20022;-75
2022/01/12 10:19:46;;;;;;;23.65;17.15;;;2.20;99.90;;;;;;5019175;28;20022;-76
2022/01/12 10:22:16;;;;;;;30.23;23.27;;;2.20;99.90;;;;;;5019328;28;20018;-74
2022/01/12 10:24:44;;;;;;;35.15;22.67;;;2.40;99.90;;;;;;5014118;28;20037;-74
2022/01/12 10:27:13;;;;;;;32.78;18.38;;;2.50;99.90;;;;;;5014768;28;20109;-74
2022/01/12 10:29:39;;;;;;;21.42;15.63;;;2.50;99.90;;;;;;5018705;28;20026;-74
2022/01/12 10:32:08;;;;;;;22.45;14.50;;;2.30;99.90;;;;;;5018675;28;20048;-74
2022/01/12 10:34:40;;;;;;;24.00;15.45;;;2.40;99.90;;;;;;5018714;28;20021;-75
2022/01/12 10:37:11;;;;;;;28.50;17.67;;;2.40;99.90;;;;;;5010864;28;20061;-74
2022/01/12 10:39:46;;;;;;;20.83;14.35;;;2.40;99.90;;;;;;5019053;28;20382;-74
2022/01/12 10:42:18;;;;;;;19.10;14.27;;;2.40;99.90;;;;;;5017831;28;20054;-75
2022/01/12 10:44:47;;;;;;;23.90;18.02;;;2.30;99.90;;;;;;5017376;28;20034;-77
2022/01/12 10:47:22;;;;;;;22.90;16.58;;;2.40;99.90;;;;;;5017573;28;20033;-76
2022/01/12 10:50:04;;;;;;;26.48;17.38;;;2.50;99.90;;;;;;5017305;28;20034;-76
2022/01/12 10:52:34;;;;;;;20.33;14.48;;;2.70;99.90;;;;;;5019973;28;20030;-76
2022/01/12 10:55:09;;;;;;;26.17;16.75;;;2.50;99.90;;;;;;5048174;28;20037;-75
2022/01/12 10:57:40;;;;;;;28.13;16.77;;;2.40;99.90;;;;;;5032731;28;20398;-77
2022/01/12 11:00:22;;;;;;;25.60;16.65;;;2.60;99.90;;;;;;5039047;28;20025;-76
2022/01/12 11:02:53;;;;;;;27.33;17.83;;;2.60;99.90;;;;;;5027990;28;20022;-74
2022/01/12 11:05:21;;;;;;;20.45;16.77;;;2.50;99.90;;;;;;5047152;28;20524;-74
2022/01/12 11:07:48;;;;;;;18.90;16.02;;;2.50;99.90;;;;;;5018452;28;20026;-74
2022/01/12 11:10:15;;;;;;;49.08;28.60;;;2.50;99.90;;;;;;5018217;28;20494;-77
2022/01/12 11:12:41;;;;;;;20.45;14.85;;;2.50;99.90;;;;;;5018469;28;20135;-76
2022/01/12 11:15:09;;;;;;;22.48;17.40;;;2.70;99.90;;;;;;5029249;28;20486;-76
2022/01/12 11:17:34;;;;;;;22.08;17.52;;;2.80;99.90;;;;;;5036850;28;20018;-76
2022/01/12 11:20:07;;;;;;;24.48;15.60;;;2.80;99.90;;;;;;5025978;28;20060;-74
2022/01/12 11:22:57;;;;;;;19.60;15.35;;;2.80;99.90;;;;;;5049681;28;20028;-74
2022/01/12 11:25:37;;;;;;;23.98;15.65;;;2.80;99.90;;;;;;5032960;28;20051;-74
2022/01/12 11:28:28;;;;;;;23.52;17.15;;;3.00;99.90;;;;;;5036419;28;20030;-76
2022/01/12 11:30:56;;;;;;;25.40;16.58;;;3.10;99.90;;;;;;5017978;28;20033;-75
2022/01/12 11:33:34;;;;;;;22.70;15.50;;;3.00;99.90;;;;;;5018016;28;20025;-75
2022/01/12 11:36:02;;;;;;;21.75;15.93;;;3.10;99.90;;;;;;5017724;28;20029;-74
2022/01/12 11:38:34;;;;;;;23.58;16.88;;;3.10;99.90;;;;;;5018073;28;20034;-74
2022/01/12 11:41:16;;;;;;;21.10;16.08;;;3.20;99.90;;;;;;5016519;28;20026;-75
2022/01/12 11:43:46;;;;;;;63.38;38.85;;;3.20;99.90;;;;;;5016154;28;20395;-75
2022/01/12 11:46:15;;;;;;;365.73;202.48;;;3.30;99.90;;;;;;5016623;28;20482;-75
2022/01/12 11:48:45;;;;;;;182.00;107.57;;;3.30;99.90;;;;;;5016103;28;20037;-75
2022/01/12 11:51:11;;;;;;;23.75;17.38;;;3.30;99.90;;;;;;5016431;28;20073;-75
2022/01/12 11:53:54;;;;;;;24.58;16.77;;;3.30;99.90;;;;;;5016527;28;20108;-76
2022/01/12 11:56:25;;;;;;;19.75;16.20;;;3.30;99.90;;;;;;5017479;28;20461;-76
2022/01/12 11:59:09;;;;;;;22.63;15.38;;;3.10;99.90;;;;;;5017618;28;20504;-76
2022/01/12 12:01:38;;;;;;;25.13;15.70;;;3.20;99.90;;;;;;5017572;28;20018;-75
2022/01/12 12:04:05;;;;;;;21.63;16.65;;;3.30;99.90;;;;;;5015949;28;20034;-76
2022/01/12 12:06:31;;;;;;;22.40;16.63;;;3.40;99.90;;;;;;5015591;28;20100;-76
2022/01/12 12:09:17;;;;;;;20.80;15.50;;;3.40;99.90;;;;;;5016642;28;20050;-75
2022/01/12 12:11:51;;;;;;;18.38;14.95;;;3.50;99.90;;;;;;5017239;28;20037;-74
2022/01/12 12:14:17;;;;;;;26.17;15.32;;;3.50;99.90;;;;;;5026370;28;20030;-75
2022/01/12 12:16:43;;;;;;;21.40;15.90;;;3.50;99.90;;;;;;5017683;28;20351;-75
2022/01/12 12:19:09;;;;;;;18.92;14.20;;;3.50;99.90;;;;;;5009276;28;20034;-75
2022/01/12 12:21:35;;;;;;;18.80;15.52;;;3.50;99.90;;;;;;5017737;28;20041;-75
2022/01/12 12:24:12;;;;;;;17.98;14.48;;;3.60;99.90;;;;;;5017402;28;20152;-75
2022/01/12 12:26:47;;;;;;;45.00;30.60;;;3.60;99.90;;;;;;5017132;28;20506;-76
2022/01/12 12:29:18;;;;;;;18.75;14.45;;;3.60;99.90;;;;;;5017473;28;20026;-75
2022/01/12 12:31:48;;;;;;;17.55;12.55;;;3.70;99.90;;;;;;5017280;28;20022;-75
2022/01/12 12:34:14;;;;;;;19.33;13.20;;;3.80;99.90;;;;;;5015732;28;20026;-76
2022/01/12 12:36:40;;;;;;;17.15;12.35;;;3.80;99.90;;;;;;5016907;28;20014;-75
2022/01/12 12:39:15;;;;;;;17.95;13.32;;;3.90;99.90;;;;;;5017214;28;20077;-75
2022/01/12 12:41:42;;;;;;;18.75;14.27;;;3.90;99.90;;;;;;5016871;28;20486;-76
2022/01/12 12:44:30;;;;;;;22.75;13.82;;;3.90;99.90;;;;;;5017091;28;20032;-75
2022/01/12 12:47:10;;;;;;;12.80;9.90;;;4.00;99.90;;;;;;5015958;28;20076;-75
2022/01/12 12:49:50;;;;;;;17.83;14.45;;;4.00;99.90;;;;;;5017158;28;20048;-76
2022/01/12 12:52:29;;;;;;;;;;;4.10;99.90;;;;;;5016160;28;20050;-76
2022/01/12 12:55:00;;;;;;;22.00;13.75;;;4.20;99.90;;;;;;5017077;28;19906;-76
2022/01/12 12:57:28;;;;;;;22.25;14.68;;;4.30;99.90;;;;;;5017180;28;20026;-76
2022/01/12 13:00:11;;;;;;;16.77;12.70;;;4.40;99.90;;;;;;5017073;28;20101;-76
2022/01/12 13:02:42;;;;;;;18.50;14.13;;;4.40;99.90;;;;;;5017148;28;20037;-76
2022/01/12 13:05:09;;;;;;;;;;;4.40;99.90;;;;;;5017300;28;20026;-76
2022/01/12 13:07:43;;;;;;;15.73;11.93;;;4.50;99.90;;;;;;5017259;28;19906;-75
2022/01/12 13:10:15;;;;;;;18.05;13.80;;;4.50;99.90;;;;;;5016886;28;20046;-75
2022/01/12 13:12:47;;;;;;;20.42;14.82;;;4.50;99.90;;;;;;5015337;28;20026;-76
2022/01/12 13:15:35;;;;;;;21.52;13.63;;;4.60;99.90;;;;;;5015722;28;20030;-75
2022/01/12 13:18:09;;;;;;;19.98;12.85;;;4.50;99.90;;;;;;5017126;28;20030;-75
2022/01/12 13:23:22;;;;;;;21.73;16.67;;;4.50;99.90;;;;;;5017021;28;20065;-76
2022/01/12 13:25:50;;;;;;;18.40;13.55;;;4.50;99.90;;;;;;5019441;28;20026;-76
2022/01/12 13:28:18;;;;;;;20.75;14.35;;;4.60;99.90;;;;;;5020018;28;20029;-76
2022/01/12 13:30:55;;;;;;;19.58;13.13;;;4.70;99.90;;;;;;5020477;28;20482;-76
2022/01/12 13:33:31;;;;;;;17.63;13.80;;;4.70;99.90;;;;;;5020396;28;20021;-76
2022/01/12 13:36:09;;;;;;;19.45;12.60;;;4.70;99.90;;;;;;5020093;28;20393;-75
2022/01/12 13:38:35;;;;;;;19.80;12.30;;;4.70;99.90;;;;;;5020231;28;20375;-76
2022/01/12 13:41:13;;;;;;;18.65;14.93;;;4.70;99.90;;;;;;5020474;28;20037;-76
2022/01/12 13:43:41;;;;;;;15.43;12.20;;;4.70;99.90;;;;;;5020165;28;20025;-76
2022/01/12 13:46:13;;;;;;;18.10;13.25;;;4.80;99.90;;;;;;5018901;28;20025;-76
2022/01/12 13:48:53;;;;;;;14.18;8.95;;;4.80;99.90;;;;;;5020297;28;20037;-75
2022/01/12 13:51:26;;;;;;;11.85;9.45;;;4.90;99.90;;;;;;5018829;28;20088;-75
2022/01/12 13:54:02;;;;;;;16.25;11.13;;;5.00;99.90;;;;;;5020164;28;20029;-75
2022/01/12 13:56:41;;;;;;;10.18;8.50;;;5.10;99.90;;;;;;5019887;28;20482;-75
2022/01/12 13:59:07;;;;;;;12.48;8.40;;;5.10;99.90;;;;;;5020126;28;20065;-75
2022/01/12 14:01:36;;;;;;;13.73;9.27;;;5.20;99.90;;;;;;5020168;28;20025;-75
2022/01/12 14:04:16;;;;;;;11.40;9.52;;;5.20;99.90;;;;;;5019490;28;20034;-76
2022/01/12 14:06:47;;;;;;;9.35;8.38;;;5.20;99.90;;;;;;5019267;28;20022;-75
2022/01/12 14:09:33;;;;;;;;;;;5.30;99.90;;;;;;5051166;28;20046;-76
2022/01/12 14:12:17;;;;;;;11.77;8.77;;;5.30;99.90;;;;;;5019741;28;19909;-76